createdAt,value
2022-10-30T00:01:55.037Z,86.38
2022-10-30T00:06:58.002Z,86.02
2022-10-30T00:12:01.344Z,85.89
2022-10-30T00:17:05.650Z,85.96
2022-10-30T00:27:10.370Z,86.22
2022-10-30T00:32:14.643Z,85.45
2022-10-30T00:37:19.429Z,85.15
2022-10-30T00:42:22.440Z,85.25
2022-10-30T00:47:31.493Z,84.84
2022-10-30T00:52:38.666Z,85.05
2022-10-30T00:57:42.912Z,84.61
2022-10-30T01:02:47.393Z,84.92
2022-10-30T01:07:50.364Z,85.07
2022-10-30T01:12:56.665Z,85.22
2022-10-30T01:18:19.014Z,85.71
2022-10-30T01:23:35.135Z,84.66
2022-10-30T01:28:52.213Z,85.03
2022-10-30T01:34:05.728Z,84.36
2022-10-30T01:39:15.020Z,84.39
2022-10-30T01:44:21.390Z,84.89
2022-10-30T01:49:48.701Z,84.94
2022-10-30T01:55:00.139Z,85.25
2022-10-30T02:00:06.297Z,85.41
2022-10-30T02:05:37.345Z,85.07
2022-10-30T02:10:41.082Z,85.22
2022-10-30T02:15:46.343Z,85.60
2022-10-30T02:20:50.637Z,84.79
2022-10-30T02:25:53.748Z,84.98
2022-10-30T02:30:56.813Z,84.59
2022-10-30T02:36:02.161Z,84.58
2022-10-30T02:41:05.185Z,84.84
2022-10-30T02:46:08.281Z,85.16
2022-10-30T02:51:12.944Z,85.34
2022-10-30T02:56:16.922Z,85.17
2022-10-30T03:01:20.943Z,85.72
2022-10-30T03:06:26.161Z,85.30
2022-10-30T03:11:29.124Z,85.58
2022-10-30T03:16:33.617Z,86.21
2022-10-30T03:21:37.956Z,86.59
2022-10-30T03:26:40.912Z,85.87
2022-10-30T03:31:45.126Z,86.25
2022-10-30T03:37:11.782Z,86.12
2022-10-30T03:42:15.363Z,86.27
2022-10-30T03:47:19.204Z,87.57
2022-10-30T03:52:23.878Z,87.57
2022-10-30T03:57:28.079Z,87.82
2022-10-30T04:02:48.502Z,88.31
2022-10-30T04:07:58.766Z,90.14
2022-10-30T04:13:03.124Z,88.94
2022-10-30T04:18:07.156Z,87.73
2022-10-30T04:23:15.544Z,87.47
2022-10-30T04:28:18.684Z,87.56
2022-10-30T04:33:22.850Z,87.13
2022-10-30T04:38:28.040Z,86.87
2022-10-30T04:43:32.815Z,86.61
2022-10-30T04:48:37.233Z,87.28
2022-10-30T04:53:42.368Z,87.38
2022-10-30T04:58:48.634Z,86.87
2022-10-30T05:03:54.623Z,86.68
2022-10-30T05:08:59.623Z,86.36
2022-10-30T05:14:12.434Z,86.15
2022-10-30T05:19:15.366Z,85.79
2022-10-30T05:24:27.701Z,86.03
2022-10-30T05:29:30.977Z,86.01
2022-10-30T05:34:34.384Z,86.73
2022-10-30T05:39:38.748Z,86.98
2022-10-30T05:45:01.030Z,87.50
2022-10-30T05:50:07.530Z,87.18
2022-10-30T05:55:14.586Z,87.13
2022-10-30T06:00:28.328Z,87.75
2022-10-30T06:05:33.262Z,88.78
2022-10-30T06:10:39.235Z,88.58
2022-10-30T06:15:56.258Z,88.37
2022-10-30T06:21:01.014Z,87.55
2022-10-30T06:26:25.665Z,87.48
2022-10-30T06:31:31.775Z,87.17
2022-10-30T06:36:36.686Z,87.55
2022-10-30T06:41:41.962Z,87.91
2022-10-30T06:46:57.135Z,87.16
2022-10-30T06:52:00.124Z,87.06
2022-10-30T06:57:04.529Z,86.11
2022-10-30T07:02:26.272Z,86.13
2022-10-30T07:07:36.119Z,86.31
2022-10-30T07:12:40.680Z,85.64
2022-10-30T07:17:57.418Z,85.66
2022-10-30T07:23:01.712Z,85.28
2022-10-30T07:28:06.493Z,85.08
2022-10-30T07:33:17.471Z,84.53
2022-10-30T07:38:40.054Z,84.34
2022-10-30T07:43:59.071Z,84.77
2022-10-30T07:49:19.843Z,82.66
2022-10-30T07:54:29.511Z,82.27
2022-10-30T07:59:39.051Z,82.73
2022-10-30T08:05:17.016Z,80.98
2022-10-30T08:10:40.965Z,80.30
2022-10-30T08:15:45.680Z,78.06
2022-10-30T08:20:50.706Z,77.61
2022-10-30T08:26:00.291Z,77.49
2022-10-30T08:31:06.159Z,77.29
2022-10-30T08:36:27.856Z,75.38
2022-10-30T08:41:31.134Z,74.62
2022-10-30T08:46:35.560Z,73.96
2022-10-30T08:51:38.529Z,73.24
2022-10-30T08:56:42.080Z,74.33
2022-10-30T09:01:51.115Z,74.17
2022-10-30T09:06:57.147Z,72.32
2022-10-30T09:12:37.928Z,72.92
2022-10-30T09:17:42.607Z,74.90
2022-10-30T09:22:45.544Z,74.71
2022-10-30T09:27:48.518Z,74.96
2022-10-30T09:32:59.008Z,76.67
2022-10-30T09:38:21.993Z,76.50
2022-10-30T09:43:37.551Z,76.53
2022-10-30T09:48:54.714Z,76.04
2022-10-30T09:54:12.399Z,76.25
2022-10-30T09:59:36.356Z,77.88
2022-10-30T10:04:45.277Z,74.46
2022-10-30T10:09:50.598Z,72.72
2022-10-30T10:15:24.974Z,70.58
2022-10-30T10:20:33.430Z,70.22
2022-10-30T10:25:39.299Z,68.05
2022-10-30T10:30:51.370Z,67.78
2022-10-30T10:36:07.285Z,66.92
2022-10-30T10:41:19.789Z,67.42
2022-10-30T10:46:35.896Z,67.78
2022-10-30T10:51:43.169Z,66.74
2022-10-30T10:56:49.543Z,66.50
2022-10-30T11:02:01.573Z,66.80
2022-10-30T11:07:18.318Z,68.13
2022-10-30T11:12:28.544Z,67.97
2022-10-30T11:17:43.353Z,68.12
2022-10-30T11:22:51.581Z,65.46
2022-10-30T11:27:56.829Z,66.73
2022-10-30T11:33:00.730Z,65.94
2022-10-30T11:38:20.744Z,66.04
2022-10-30T11:43:25.553Z,64.53
2022-10-30T11:48:31.707Z,63.77
2022-10-30T11:53:40.149Z,62.44
2022-10-30T11:58:47.090Z,62.97
2022-10-30T12:03:50.334Z,63.05
2022-10-30T12:09:03.234Z,63.39
2022-10-30T12:14:06.964Z,60.08
2022-10-30T12:19:15.428Z,58.35
2022-10-30T12:24:22.697Z,58.62
2022-10-30T12:30:02.728Z,57.57
2022-10-30T12:35:03.540Z,57.80
2022-10-30T12:40:14.215Z,58.97
2022-10-30T12:45:21.910Z,57.51
2022-10-30T12:50:28.429Z,57.73
2022-10-30T12:55:37.770Z,59.75
2022-10-30T13:00:47.141Z,60.76
2022-10-30T13:05:54.844Z,59.06
2022-10-30T13:11:05.242Z,60.22
2022-10-30T13:16:14.126Z,59.95
2022-10-30T13:21:24.768Z,59.56
2022-10-30T13:26:37.290Z,58.72
2022-10-30T13:31:52.469Z,59.94
2022-10-30T13:37:03.408Z,59.33
2022-10-30T13:42:31.253Z,60.29
2022-10-30T13:47:44.227Z,60.27
2022-10-30T13:52:56.385Z,61.45
2022-10-30T13:58:06.771Z,62.93
2022-10-30T14:03:24.067Z,64.28
2022-10-30T14:08:36.670Z,66.34
2022-10-30T14:13:54.171Z,66.03
2022-10-30T14:19:01.733Z,66.85
2022-10-30T14:24:11.371Z,68.06
2022-10-30T14:29:42.841Z,67.76
2022-10-30T14:34:47.875Z,68.04
2022-10-30T14:39:52.210Z,67.87
2022-10-30T14:45:10.813Z,67.59
2022-10-30T14:50:23.464Z,67.55
2022-10-30T14:55:32.036Z,68.08
2022-10-30T15:00:43.908Z,68.36
2022-10-30T15:05:53.693Z,69.44
2022-10-30T15:11:14.052Z,69.57
2022-10-30T15:16:23.941Z,70.50
2022-10-30T15:21:29.741Z,71.30
2022-10-30T15:26:36.871Z,72.05
2022-10-30T15:31:41.147Z,72.64
2022-10-30T15:36:44.079Z,73.11
2022-10-30T15:41:49.851Z,76.45
2022-10-30T15:46:56.476Z,75.49
2022-10-30T15:52:00.815Z,76.43
2022-10-30T15:57:49.413Z,76.58
2022-10-30T16:02:28.412Z,76.59
2022-10-30T16:07:32.385Z,76.39
2022-10-30T16:12:36.297Z,76.27
2022-10-30T16:17:40.670Z,77.19
2022-10-30T16:22:43.825Z,78.95
2022-10-30T16:27:47.283Z,78.95
2022-10-30T16:32:54.677Z,80.48
2022-10-30T16:37:58.236Z,79.85
2022-10-30T16:43:03.383Z,81.34
2022-10-30T16:53:23.351Z,82.19
2022-10-30T16:58:30.280Z,81.91
2022-10-30T17:03:38.224Z,82.33
2022-10-30T17:08:43.885Z,82.42
2022-10-30T17:13:59.002Z,82.01
2022-10-30T17:19:39.702Z,82.74
2022-10-30T17:24:42.900Z,82.69
2022-10-30T17:29:46.316Z,82.40
2022-10-30T17:35:00.527Z,82.88
2022-10-30T17:40:03.789Z,83.56
2022-10-30T17:45:10.395Z,83.54
2022-10-30T17:50:14.739Z,83.23
2022-10-30T17:55:26.522Z,83.13
2022-10-30T18:00:29.443Z,83.15
2022-10-30T18:05:36.191Z,82.98
2022-10-30T18:10:39.183Z,83.66
2022-10-30T18:15:45.254Z,83.47
2022-10-30T18:20:49.514Z,83.89
2022-10-30T18:25:52.674Z,83.92
2022-10-30T18:30:58.518Z,83.96
2022-10-30T18:36:02.802Z,84.45
2022-10-30T18:41:06.161Z,85.13
2022-10-30T18:46:11.442Z,84.68
2022-10-30T18:51:19.154Z,84.61
2022-10-30T18:56:26.683Z,84.55
2022-10-30T19:01:30.820Z,84.45
2022-10-30T19:06:37.588Z,84.85
2022-10-30T19:11:44.168Z,84.61
2022-10-30T19:16:47.561Z,84.19
2022-10-30T19:21:52.953Z,84.94
2022-10-30T19:26:56.062Z,85.04
2022-10-30T19:31:58.944Z,86.58
2022-10-30T19:37:03.227Z,85.86
2022-10-30T19:42:06.167Z,86.03
2022-10-30T19:47:10.192Z,85.84
2022-10-30T19:52:16.080Z,85.90
2022-10-30T19:57:19.295Z,86.11
2022-10-30T20:02:22.600Z,85.79
2022-10-30T20:07:27.025Z,86.54
2022-10-30T20:12:29.945Z,85.87
2022-10-30T20:17:32.867Z,85.87
2022-10-30T20:22:37.207Z,85.84
2022-10-30T20:27:41.232Z,86.25
2022-10-30T20:32:44.241Z,86.81
2022-10-30T20:38:01.501Z,86.52
2022-10-30T20:43:04.440Z,86.32
2022-10-30T20:48:07.461Z,85.88
2022-10-30T20:53:14.521Z,86.28
2022-10-30T20:58:17.951Z,87.08
2022-10-30T21:03:20.834Z,87.03
2022-10-30T21:08:25.206Z,87.80
2022-10-30T21:13:28.619Z,88.25
2022-10-30T21:18:32.478Z,86.94
2022-10-30T21:23:36.829Z,87.52
2022-10-30T21:28:40.222Z,87.07
2022-10-30T21:33:43.322Z,88.54
2022-10-30T21:38:48.092Z,87.95
2022-10-30T21:43:52.274Z,87.43
2022-10-30T21:48:55.498Z,87.37
2022-10-30T21:54:00.013Z,85.38
2022-10-30T21:59:04.738Z,81.77
2022-10-30T22:04:09.657Z,73.89
2022-10-30T22:09:16.691Z,67.30
2022-10-30T22:14:19.581Z,64.37
2022-10-30T22:19:22.497Z,61.99
2022-10-30T22:24:26.827Z,61.20
2022-10-30T22:29:29.725Z,70.93
2022-10-30T22:34:32.715Z,77.96
2022-10-30T22:39:36.993Z,77.38
2022-10-30T22:44:39.931Z,77.45
2022-10-30T22:49:42.811Z,74.97
2022-10-30T22:54:47.079Z,71.38
2022-10-30T22:59:49.949Z,65.39
2022-10-30T23:04:52.902Z,63.37
2022-10-30T23:09:57.149Z,60.71
2022-10-30T23:15:00.015Z,58.91
2022-10-30T23:20:02.946Z,58.45
2022-10-30T23:25:07.662Z,63.44
2022-10-30T23:30:12.010Z,64.73
2022-10-30T23:35:15.011Z,59.00
2022-10-30T23:40:19.289Z,58.22
2022-10-30T23:45:22.841Z,56.72
2022-10-30T23:50:25.827Z,57.78
2022-10-30T23:55:30.119Z,66.54
